Time;durP1;ratioP1;P1;durP2;ratioP2;P2;SDS_P1;SDS_P2;PMS_P1;PMS_P2;Temp;Humidity;BMP_temperature;BMP_pressure;BME280_temperature;BME280_humidity;BME280_pressure;Samples;Min_cycle;Max_cycle;Signal;HPM_P1;HPM_P2
2023/04/01 00:01:17;;;;;;;1.63;0.50;;;;;;;;;;5096793;28;20095;-75
2023/04/01 00:03:43;;;;;;;2.83;0.68;;;;;;;;;;5093722;28;20446;-77
2023/04/01 00:06:11;;;;;;;4.07;0.50;;;;;;;;;;5110557;28;20461;-72
2023/04/01 00:08:37;;;;;;;1.85;0.50;;;;;;;;;;5114214;28;20027;-78
2023/04/01 00:11:03;;;;;;;1.60;0.57;;;;;;;;;;5113789;28;20019;-78
2023/04/01 00:13:29;;;;;;;3.33;0.60;;;;;;;;;;5112117;28;20106;-79
2023/04/01 00:15:56;;;;;;;1.55;0.60;;;;;;;;;;5113717;28;20024;-79
2023/04/01 00:18:22;;;;;;;5.38;0.68;;;;;;;;;;5113509;28;20028;-80
2023/04/01 00:20:50;;;;;;;5.22;1.15;;;;;;;;;;5111893;28;20024;-78
2023/04/01 00:23:16;;;;;;;4.90;0.60;;;;;;;;;;5113300;28;20065;-77
2023/04/01 00:25:43;;;;;;;1.73;0.60;;;;;;;;;;5109992;28;20028;-79
2023/04/01 00:28:09;;;;;;;2.10;0.57;;;;;;;;;;5093584;28;20032;-78
2023/04/01 00:30:36;;;;;;;5.40;0.73;;;;;;;;;;5092446;28;20035;-77
2023/04/01 00:33:02;;;;;;;3.78;0.60;;;;;;;;;;5093749;28;20054;-78
2023/04/01 00:35:29;;;;;;;2.65;0.50;;;;;;;;;;5104738;28;20089;-77
2023/04/01 00:37:55;;;;;;;2.15;0.95;;;;;;;;;;5112256;28;20384;-77
2023/04/01 00:40:27;;;;;;;7.70;0.73;;;;;;;;;;5111936;28;20028;-76
2023/04/01 00:42:53;;;;;;;3.92;0.60;;;;;;;;;;5113607;28;20093;-78
2023/04/01 00:45:25;;;;;;;3.13;0.77;;;;;;;;;;5112664;28;20089;-76
2023/04/01 00:47:51;;;;;;;2.30;0.80;;;;;;;;;;5112246;28;20043;-76
2023/04/01 00:50:17;;;;;;;5.30;0.68;;;;;;;;;;5109528;28;20064;-76
2023/04/01 00:52:43;;;;;;;2.03;0.60;;;;;;;;;;5113028;28;20035;-76
2023/04/01 00:55:11;;;;;;;4.07;0.60;;;;;;;;;;5111162;28;20023;-72
2023/04/01 00:57:38;;;;;;;3.80;0.80;;;;;;;;;;5112413;28;20457;-75
2023/04/01 01:00:07;;;;;;;3.60;0.90;;;;;;;;;;5095060;28;20341;-75
2023/04/01 01:02:33;;;;;;;7.15;0.98;;;;;;;;;;5094436;28;20565;-77
2023/04/01 01:04:59;;;;;;;6.40;0.75;;;;;;;;;;5113530;28;20019;-78
2023/04/01 01:07:43;;;;;;;4.30;0.68;;;;;;;;;;5110500;28;20020;-77
2023/04/01 01:10:16;;;;;;;3.53;0.63;;;;;;;;;;5113598;28;20488;-71
2023/04/01 01:13:02;;;;;;;3.67;0.63;;;;;;;;;;5113471;28;20066;-76
2023/04/01 01:15:31;;;;;;;2.30;0.65;;;;;;;;;;5112289;28;20369;-77
2023/04/01 01:18:00;;;;;;;4.22;0.73;;;;;;;;;;5113359;28;20035;-78
2023/04/01 01:20:26;;;;;;;5.03;0.98;;;;;;;;;;5109954;28;20031;-75
2023/04/01 01:23:04;;;;;;;3.00;0.60;;;;;;;;;;5112962;28;20028;-76
2023/04/01 01:25:49;;;;;;;1.90;0.60;;;;;;;;;;5107841;28;20059;-76
2023/04/01 01:28:50;;;;;;;2.72;0.90;;;;;;;;;;5091504;28;20050;-76
2023/04/01 01:31:21;;;;;;;5.30;0.70;;;;;;;;;;4990763;28;20093;-75
2023/04/01 01:34:03;;;;;;;4.90;0.93;;;;;;;;;;5076170;28;20120;-77
2023/04/01 01:36:34;;;;;;;2.53;0.77;;;;;;;;;;5097317;28;20034;-78
2023/04/01 01:39:01;;;;;;;4.40;0.80;;;;;;;;;;5106123;28;20055;-77
2023/04/01 01:41:28;;;;;;;4.47;0.68;;;;;;;;;;5092913;28;20069;-78
2023/04/01 01:43:54;;;;;;;4.10;0.50;;;;;;;;;;5093151;28;20024;-78
2023/04/01 01:46:22;;;;;;;1.45;0.45;;;;;;;;;;5090430;28;20024;-77
2023/04/01 01:48:50;;;;;;;2.95;0.60;;;;;;;;;;5073432;28;20059;-79
2023/04/01 01:51:17;;;;;;;2.97;0.60;;;;;;;;;;5074415;28;20036;-77
2023/04/01 01:53:43;;;;;;;3.22;0.57;;;;;;;;;;5091525;28;20024;-77
2023/04/01 01:56:12;;;;;;;3.80;0.60;;;;;;;;;;5091072;28;20035;-73
2023/04/01 01:58:50;;;;;;;2.08;0.73;;;;;;;;;;5112186;28;20491;-76
2023/04/01 02:01:18;;;;;;;4.05;0.60;;;;;;;;;;5110633;28;20027;-76
2023/04/01 02:03:44;;;;;;;2.42;0.60;;;;;;;;;;5114675;28;20027;-79
2023/04/01 02:06:11;;;;;;;3.63;0.50;;;;;;;;;;5124778;28;20104;-72
2023/04/01 02:08:51;;;;;;;3.78;0.80;;;;;;;;;;5099996;28;20035;-76
2023/04/01 02:11:19;;;;;;;3.72;0.60;;;;;;;;;;5090242;28;20024;-76
2023/04/01 02:13:52;;;;;;;1.67;0.40;;;;;;;;;;5091443;28;20052;-76
2023/04/01 02:16:24;;;;;;;3.13;0.57;;;;;;;;;;5090461;28;20024;-76
2023/04/01 02:18:52;;;;;;;3.95;0.70;;;;;;;;;;5089476;28;20036;-76
2023/04/01 02:21:20;;;;;;;4.18;0.60;;;;;;;;;;5090293;28;20469;-75
2023/04/01 02:23:47;;;;;;;2.95;0.63;;;;;;;;;;5090684;28;20424;-76
2023/04/01 02:26:14;;;;;;;4.13;0.80;;;;;;;;;;5092365;28;20031;-71
2023/04/01 02:28:40;;;;;;;1.63;0.32;;;;;;;;;;5079471;28;20358;-76
2023/04/01 02:31:07;;;;;;;2.33;0.40;;;;;;;;;;5070831;28;20469;-76
2023/04/01 02:33:33;;;;;;;1.55;0.30;;;;;;;;;;5070435;28;20036;-76
2023/04/01 02:35:59;;;;;;;1.45;0.35;;;;;;;;;;5071075;28;20069;-76
2023/04/01 02:38:26;;;;;;;1.85;0.30;;;;;;;;;;5070286;28;20028;-75
2023/04/01 02:40:56;;;;;;;0.98;0.28;;;;;;;;;;5070985;28;20113;-76
2023/04/01 02:43:22;;;;;;;1.83;0.40;;;;;;;;;;5070297;28;20044;-76
2023/04/01 02:45:48;;;;;;;1.25;0.30;;;;;;;;;;5080039;28;20016;-76
2023/04/01 02:48:14;;;;;;;0.85;0.40;;;;;;;;;;5088376;28;20079;-75
2023/04/01 02:50:40;;;;;;;0.40;0.15;;;;;;;;;;5103116;28;20104;-76
2023/04/01 02:53:06;;;;;;;1.38;0.30;;;;;;;;;;5111730;28;20077;-75
2023/04/01 02:55:33;;;;;;;0.75;0.10;;;;;;;;;;5110064;28;20027;-75
2023/04/01 02:57:59;;;;;;;2.10;0.40;;;;;;;;;;5111706;28;20027;-76
2023/04/01 03:00:26;;;;;;;1.00;0.20;;;;;;;;;;5110613;28;20051;-76
2023/04/01 03:02:52;;;;;;;0.45;0.10;;;;;;;;;;5111352;28;20030;-76
2023/04/01 03:05:19;;;;;;;0.68;0.20;;;;;;;;;;5110602;28;20028;-75
2023/04/01 03:07:45;;;;;;;1.42;0.10;;;;;;;;;;5110033;28;20027;-75
2023/04/01 03:10:11;;;;;;;0.65;0.20;;;;;;;;;;5110897;28;20016;-70
2023/04/01 03:12:37;;;;;;;0.35;0.10;;;;;;;;;;5109870;28;20016;-75
2023/04/01 03:15:03;;;;;;;0.85;0.30;;;;;;;;;;5094693;28;20021;-74
2023/04/01 03:17:29;;;;;;;1.90;0.30;;;;;;;;;;5092339;28;20032;-75
2023/04/01 03:19:55;;;;;;;0.65;0.30;;;;;;;;;;5094509;28;20036;-74
2023/04/01 03:22:22;;;;;;;0.68;0.20;;;;;;;;;;5092962;28;20020;-74
2023/04/01 03:24:49;;;;;;;2.35;0.20;;;;;;;;;;5097273;28;20115;-76
2023/04/01 03:27:15;;;;;;;1.65;0.30;;;;;;;;;;5093561;28;20020;-77
2023/04/01 03:29:41;;;;;;;1.90;0.20;;;;;;;;;;5094652;28;20051;-75
2023/04/01 03:32:07;;;;;;;2.72;0.45;;;;;;;;;;5110193;28;20020;-74
2023/04/01 03:34:33;;;;;;;3.38;0.30;;;;;;;;;;5113942;28;20039;-75
2023/04/01 03:36:59;;;;;;;0.52;0.17;;;;;;;;;;5114028;28;20035;-74
2023/04/01 03:39:25;;;;;;;1.30;0.40;;;;;;;;;;5111831;28;20015;-73
2023/04/01 03:41:51;;;;;;;0.47;0.17;;;;;;;;;;5113809;28;20441;-74
2023/04/01 03:44:17;;;;;;;1.00;0.15;;;;;;;;;;5113733;28;20023;-74
2023/04/01 03:46:43;;;;;;;0.38;0.20;;;;;;;;;;5112375;28;20028;-76
2023/04/01 03:49:11;;;;;;;1.48;0.28;;;;;;;;;;5113576;28;20044;-76
2023/04/01 03:51:41;;;;;;;1.70;0.20;;;;;;;;;;5114231;28;20103;-76
2023/04/01 03:54:07;;;;;;;2.30;0.30;;;;;;;;;;5114374;28;20024;-75
2023/04/01 03:56:33;;;;;;;1.08;0.40;;;;;;;;;;5108218;28;20099;-75
2023/04/01 03:58:59;;;;;;;3.47;0.40;;;;;;;;;;5112246;28;20019;-75
2023/04/01 04:01:26;;;;;;;0.55;0.20;;;;;;;;;;5112965;28;20024;-77
2023/04/01 04:03:52;;;;;;;1.75;0.20;;;;;;;;;;5114193;28;20522;-75
2023/04/01 04:06:18;;;;;;;0.82;0.20;;;;;;;;;;5113100;28;20086;-74
2023/04/01 04:08:45;;;;;;;1.48;0.30;;;;;;;;;;5114245;28;20115;-76
2023/04/01 04:11:11;;;;;;;2.13;0.30;;;;;;;;;;5116118;28;20102;-71
2023/04/01 04:13:37;;;;;;;1.45;0.20;;;;;;;;;;5112057;28;20032;-74
2023/04/01 04:16:03;;;;;;;1.20;0.15;;;;;;;;;;5112716;28;20073;-75
2023/04/01 04:18:30;;;;;;;2.22;0.47;;;;;;;;;;5092235;28;20043;-75
2023/04/01 04:20:56;;;;;;;3.30;0.30;;;;;;;;;;5093439;28;20044;-76
2023/04/01 04:23:22;;;;;;;3.45;0.57;;;;;;;;;;5092739;28;20496;-76
2023/04/01 04:26:05;;;;;;;1.17;0.20;;;;;;;;;;5092870;28;20047;-76
2023/04/01 04:28:31;;;;;;;3.40;0.50;;;;;;;;;;5092668;28;20581;-76
2023/04/01 04:30:57;;;;;;;2.03;0.30;;;;;;;;;;5109726;28;20032;-75
2023/04/01 04:33:24;;;;;;;1.30;0.40;;;;;;;;;;5112738;28;20016;-74
2023/04/01 04:35:50;;;;;;;1.77;0.32;;;;;;;;;;5112851;28;20019;-75
2023/04/01 04:38:17;;;;;;;2.17;0.10;;;;;;;;;;5108765;28;20114;-73
2023/04/01 04:40:43;;;;;;;0.63;0.28;;;;;;;;;;5096712;28;20024;-75
2023/04/01 04:43:13;;;;;;;3.25;0.22;;;;;;;;;;5095292;28;20516;-71
2023/04/01 04:45:39;;;;;;;2.92;0.40;;;;;;;;;;5097687;28;20026;-77
2023/04/01 04:48:07;;;;;;;0.55;0.30;;;;;;;;;;5095678;28;20097;-73
2023/04/01 04:50:33;;;;;;;1.02;0.22;;;;;;;;;;5099487;28;20601;-74
2023/04/01 04:52:59;;;;;;;1.65;0.52;;;;;;;;;;5098703;28;20032;-73
2023/04/01 04:55:25;;;;;;;1.30;0.35;;;;;;;;;;5099648;28;20103;-73
2023/04/01 04:57:51;;;;;;;1.30;0.40;;;;;;;;;;5099479;28;20020;-74
2023/04/01 05:00:17;;;;;;;1.35;0.45;;;;;;;;;;5100559;28;20028;-74
2023/04/01 05:02:43;;;;;;;4.93;0.40;;;;;;;;;;5101026;28;20102;-74
2023/04/01 05:05:10;;;;;;;1.20;0.20;;;;;;;;;;5098817;28;20016;-70
2023/04/01 05:07:36;;;;;;;4.28;0.35;;;;;;;;;;5100346;28;20062;-72
2023/04/01 05:10:02;;;;;;;1.27;0.28;;;;;;;;;;5098996;28;20031;-72
2023/04/01 05:12:28;;;;;;;1.90;0.50;;;;;;;;;;5097245;28;20829;-73
2023/04/01 05:14:54;;;;;;;4.28;0.43;;;;;;;;;;5102009;28;20020;-74
2023/04/01 05:17:20;;;;;;;3.30;0.45;;;;;;;;;;5098553;28;20485;-76
2023/04/01 05:19:46;;;;;;;3.67;0.60;;;;;;;;;;5099137;28;20102;-74
2023/04/01 05:22:12;;;;;;;1.02;0.43;;;;;;;;;;5098290;28;20028;-71
2023/04/01 05:24:38;;;;;;;4.40;0.90;;;;;;;;;;5101268;28;20016;-74
2023/04/01 05:27:04;;;;;;;5.78;0.80;;;;;;;;;;5102209;28;20452;-72
2023/04/01 05:29:30;;;;;;;5.20;0.73;;;;;;;;;;5100224;28;20101;-75
2023/04/01 05:31:56;;;;;;;4.75;0.75;;;;;;;;;;5102949;28;20024;-74
2023/04/01 05:34:22;;;;;;;3.53;0.70;;;;;;;;;;5101599;28;20020;-74
2023/04/01 05:36:48;;;;;;;3.70;0.80;;;;;;;;;;5101989;28;20036;-75
2023/04/01 05:39:14;;;;;;;2.83;0.90;;;;;;;;;;5105804;28;20369;-70
2023/04/01 05:41:40;;;;;;;2.17;0.73;;;;;;;;;;5090817;28;20028;-74
2023/04/01 05:44:06;;;;;;;4.70;0.60;;;;;;;;;;5093905;28;20046;-74
2023/04/01 05:46:32;;;;;;;3.33;0.70;;;;;;;;;;5102656;28;20099;-75
2023/04/01 05:48:58;;;;;;;2.53;0.43;;;;;;;;;;5108799;28;20039;-74
2023/04/01 05:51:24;;;;;;;3.35;0.60;;;;;;;;;;5090145;28;20020;-73
2023/04/01 05:53:50;;;;;;;2.30;0.35;;;;;;;;;;5102996;28;20417;-73
2023/04/01 05:56:16;;;;;;;5.68;0.63;;;;;;;;;;5100314;28;20019;-74
2023/04/01 05:58:42;;;;;;;2.97;0.60;;;;;;;;;;5111012;28;20054;-72
2023/04/01 06:01:09;;;;;;;2.92;0.70;;;;;;;;;;5090662;28;20035;-74
2023/04/01 06:03:36;;;;;;;3.40;0.80;;;;;;;;;;5091228;28;20020;-73
2023/04/01 06:06:02;;;;;;;1.88;0.38;;;;;;;;;;5096938;28;20023;-74
2023/04/01 06:08:30;;;;;;;3.85;0.57;;;;;;;;;;5101125;28;20104;-74
2023/04/01 06:10:56;;;;;;;4.95;0.47;;;;;;;;;;5097576;28;20024;-72
2023/04/01 06:13:46;;;;;;;1.77;0.40;;;;;;;;;;5100799;28;20094;-72
2023/04/01 06:16:27;;;;;;;3.60;0.50;;;;;;;;;;5094033;28;20081;-70
2023/04/01 06:19:00;;;;;;;3.42;0.40;;;;;;;;;;5093787;28;20508;-76
2023/04/01 06:21:41;;;;;;;2.63;0.70;;;;;;;;;;5090505;28;20028;-76
2023/04/01 06:24:07;;;;;;;2.53;0.40;;;;;;;;;;5091454;28;20407;-75
2023/04/01 06:26:33;;;;;;;3.45;0.55;;;;;;;;;;5099932;28;20035;-73
2023/04/01 06:29:05;;;;;;;3.55;0.65;;;;;;;;;;5116347;28;20079;-73
2023/04/01 06:31:37;;;;;;;2.17;0.55;;;;;;;;;;5103979;28;20094;-74
2023/04/01 06:34:06;;;;;;;1.95;0.40;;;;;;;;;;5101638;28;20047;-73
2023/04/01 06:36:38;;;;;;;1.63;0.47;;;;;;;;;;5101206;28;20020;-76
2023/04/01 06:39:23;;;;;;;1.98;0.43;;;;;;;;;;5114923;28;20099;-72
2023/04/01 06:42:10;;;;;;;0.77;0.30;;;;;;;;;;5091229;28;20066;-73
2023/04/01 06:44:48;;;;;;;3.30;0.68;;;;;;;;;;5093057;28;20024;-73
2023/04/01 06:47:24;;;;;;;3.08;0.65;;;;;;;;;;5091173;28;20118;-71
2023/04/01 06:50:09;;;;;;;2.35;0.38;;;;;;;;;;5095373;28;20107;-75
2023/04/01 06:52:46;;;;;;;5.60;0.52;;;;;;;;;;5099889;28;20032;-74
2023/04/01 06:55:19;;;;;;;3.20;0.50;;;;;;;;;;5100986;28;20441;-70
2023/04/01 06:57:47;;;;;;;1.35;0.28;;;;;;;;;;5094428;28;20073;-73
2023/04/01 07:00:23;;;;;;;1.52;0.50;;;;;;;;;;5099541;28;20035;-69
2023/04/01 07:02:55;;;;;;;2.50;0.60;;;;;;;;;;5094527;28;20481;-73
2023/04/01 07:05:21;;;;;;;1.13;0.28;;;;;;;;;;5099454;28;20425;-74
2023/04/01 07:07:49;;;;;;;2.22;0.40;;;;;;;;;;5101363;28;20098;-77
2023/04/01 07:10:21;;;;;;;2.28;0.40;;;;;;;;;;5101786;28;20070;-72
2023/04/01 07:12:50;;;;;;;0.88;0.30;;;;;;;;;;5104747;28;20015;-74
2023/04/01 07:15:21;;;;;;;3.67;0.50;;;;;;;;;;5101261;28;20027;-73
2023/04/01 07:17:50;;;;;;;1.60;0.38;;;;;;;;;;5099760;28;20422;-73
2023/04/01 07:20:21;;;;;;;2.42;0.52;;;;;;;;;;5105144;28;20373;-70
2023/04/01 07:22:52;;;;;;;2.75;0.60;;;;;;;;;;5101794;28;20076;-73
2023/04/01 07:25:37;;;;;;;2.95;0.43;;;;;;;;;;5105790;28;20024;-73
2023/04/01 07:28:05;;;;;;;2.08;0.55;;;;;;;;;;5101988;28;20031;-73
2023/04/01 07:30:40;;;;;;;1.38;0.50;;;;;;;;;;5103463;28;20020;-74
2023/04/01 07:33:15;;;;;;;1.83;0.45;;;;;;;;;;5103492;28;20031;-76
2023/04/01 07:35:49;;;;;;;1.05;0.30;;;;;;;;;;5100279;28;20016;-79
2023/04/01 07:38:20;;;;;;;3.55;0.40;;;;;;;;;;5104085;28;20054;-77
2023/04/01 07:40:50;;;;;;;2.10;0.38;;;;;;;;;;5098841;28;20023;-78
2023/04/01 07:43:39;;;;;;;3.07;0.67;;;;;;;;;;5093306;28;20023;-79
2023/04/01 07:46:23;;;;;;;1.38;0.38;;;;;;;;;;5109675;28;20253;-73
2023/04/01 07:49:07;;;;;;;4.18;0.50;;;;;;;;;;5112520;28;20082;-77
2023/04/01 07:51:39;;;;;;;1.90;0.60;;;;;;;;;;5093392;28;20024;-82
2023/04/01 07:54:16;;;;;;;0.63;0.22;;;;;;;;;;5109818;28;20022;-72
2023/04/01 07:56:51;;;;;;;1.67;0.50;;;;;;;;;;5092638;28;20034;-77
2023/04/01 07:59:30;;;;;;;1.13;0.40;;;;;;;;;;5092102;28;20048;-82
2023/04/01 08:02:08;;;;;;;2.13;0.43;;;;;;;;;;5092388;28;20062;-74
2023/04/01 08:04:37;;;;;;;3.40;0.65;;;;;;;;;;5099204;28;20131;-73
2023/04/01 08:07:09;;;;;;;2.72;0.35;;;;;;;;;;5112570;28;20019;-85
2023/04/01 08:09:53;;;;;;;1.58;0.40;;;;;;;;;;5106345;28;20020;-84
2023/04/01 08:12:25;;;;;;;2.20;0.32;;;;;;;;;;5092231;28;20048;-84
2023/04/01 08:15:08;;;;;;;2.08;0.50;;;;;;;;;;5102203;28;20038;-80
2023/04/01 08:17:37;;;;;;;1.58;0.40;;;;;;;;;;5114648;28;20055;-81
2023/04/01 08:20:15;;;;;;;2.38;0.55;;;;;;;;;;5125556;28;20108;-87
2023/04/01 08:22:52;;;;;;;1.05;0.40;;;;;;;;;;5127448;28;20020;-82
2023/04/01 08:25:21;;;;;;;2.22;0.45;;;;;;;;;;5115499;28;20110;-85
2023/04/01 08:27:49;;;;;;;0.77;0.30;;;;;;;;;;5114269;28;20024;-79
2023/04/01 08:30:20;;;;;;;3.78;0.40;;;;;;;;;;5108460;28;20036;-76
2023/04/01 08:32:49;;;;;;;1.25;0.43;;;;;;;;;;5093551;28;20145;-83
2023/04/01 08:35:20;;;;;;;2.58;0.45;;;;;;;;;;5092856;28;20098;-73
2023/04/01 08:37:49;;;;;;;4.70;0.43;;;;;;;;;;5102911;28;20475;-79
2023/04/01 08:40:30;;;;;;;2.17;0.47;;;;;;;;;;5091030;28;20469;-75
2023/04/01 08:43:05;;;;;;;3.08;0.40;;;;;;;;;;5092836;28;20017;-82
2023/04/01 08:45:38;;;;;;;2.30;0.80;;;;;;;;;;5091963;28;20020;-83
2023/04/01 08:48:23;;;;;;;2.70;0.60;;;;;;;;;;5092892;28;20443;-84
2023/04/01 08:50:54;;;;;;;1.67;0.40;;;;;;;;;;5096818;28;20096;-81
2023/04/01 08:53:36;;;;;;;2.55;0.50;;;;;;;;;;5106711;28;20055;-79
2023/04/01 08:56:08;;;;;;;1.73;0.30;;;;;;;;;;5094394;28;20024;-79
2023/04/01 08:58:34;;;;;;;1.25;0.38;;;;;;;;;;5103534;28;20086;-79
2023/04/01 09:01:18;;;;;;;0.95;0.20;;;;;;;;;;5102589;28;20024;-77
2023/04/01 09:03:52;;;;;;;1.10;0.30;;;;;;;;;;5100235;28;20028;-77
2023/04/01 09:06:24;;;;;;;1.02;0.30;;;;;;;;;;5109393;28;20027;-79
2023/04/01 09:08:53;;;;;;;4.53;0.40;;;;;;;;;;5116538;28;20030;-79
2023/04/01 09:11:38;;;;;;;0.45;0.28;;;;;;;;;;5104447;28;20468;-79
2023/04/01 09:14:10;;;;;;;0.43;0.10;;;;;;;;;;5115815;28;20099;-79
2023/04/01 09:16:55;;;;;;;2.10;0.20;;;;;;;;;;5102110;28;20028;-79
2023/04/01 09:19:21;;;;;;;1.48;0.32;;;;;;;;;;5100056;28;20020;-81
2023/04/01 09:22:06;;;;;;;1.55;0.10;;;;;;;;;;5096941;28;20020;-78
2023/04/01 09:24:51;;;;;;;0.65;0.30;;;;;;;;;;5091110;28;20660;-80
2023/04/01 09:27:27;;;;;;;1.50;0.40;;;;;;;;;;5106221;28;20027;-78
2023/04/01 09:30:12;;;;;;;1.25;0.40;;;;;;;;;;5108918;28;20488;-75
2023/04/01 09:32:53;;;;;;;2.15;0.25;;;;;;;;;;5111529;28;20027;-84
2023/04/01 09:35:25;;;;;;;1.42;0.40;;;;;;;;;;5107220;28;20016;-83
2023/04/01 09:37:58;;;;;;;0.50;0.30;;;;;;;;;;5112305;28;20027;-83
2023/04/01 09:40:24;;;;;;;0.63;0.30;;;;;;;;;;5105070;28;20048;-83
2023/04/01 09:43:02;;;;;;;0.65;0.15;;;;;;;;;;5095069;28;20031;-82
2023/04/01 09:45:34;;;;;;;0.70;0.22;;;;;;;;;;5104813;28;20056;-82
2023/04/01 09:48:10;;;;;;;0.45;0.13;;;;;;;;;;5102568;28;20040;-77
2023/04/01 09:50:51;;;;;;;0.55;0.30;;;;;;;;;;5094457;28;20592;-81
2023/04/01 09:53:33;;;;;;;2.25;0.20;;;;;;;;;;5090590;28;20066;-80
2023/04/01 09:56:03;;;;;;;0.82;0.20;;;;;;;;;;5091206;28;20372;-82
2023/04/01 09:58:44;;;;;;;0.88;0.10;;;;;;;;;;5091005;28;20131;-77
2023/04/01 10:01:36;;;;;;;1.65;0.30;;;;;;;;;;5094048;28;20037;-76
2023/04/01 10:04:08;;;;;;;0.10;0.10;;;;;;;;;;5067254;28;20036;-82
2023/04/01 10:06:34;;;;;;;1.88;0.20;;;;;;;;;;5089202;28;20029;-80
2023/04/01 10:09:15;;;;;;;0.52;0.20;;;;;;;;;;5091195;28;20127;-79
2023/04/01 10:11:41;;;;;;;1.35;0.20;;;;;;;;;;5090972;28;20358;-81
2023/04/01 10:14:27;;;;;;;1.30;0.73;;;;;;;;;;5107128;28;20035;-84
2023/04/01 10:16:53;;;;;;;0.63;0.30;;;;;;;;;;5093368;28;20020;-83
2023/04/01 10:19:29;;;;;;;0.93;0.10;;;;;;;;;;5093376;28;20372;-81
2023/04/01 10:22:14;;;;;;;1.02;0.22;;;;;;;;;;5110796;28;20396;-80
2023/04/01 10:24:58;;;;;;;1.27;0.40;;;;;;;;;;5116202;28;20024;-85
2023/04/01 10:27:27;;;;;;;0.88;0.15;;;;;;;;;;5102466;28;20381;-83
2023/04/01 10:30:05;;;;;;;0.32;0.10;;;;;;;;;;5095341;28;20114;-78
2023/04/01 10:32:53;;;;;;;0.70;0.20;;;;;;;;;;5094052;28;20621;-82
2023/04/01 10:35:28;;;;;;;0.55;0.10;;;;;;;;;;5092785;28;20104;-80
2023/04/01 10:37:54;;;;;;;0.20;0.20;;;;;;;;;;5094803;28;20021;-81
2023/04/01 10:40:22;;;;;;;0.10;0.10;;;;;;;;;;5093580;28;20012;-78
2023/04/01 10:43:07;;;;;;;0.22;0.20;;;;;;;;;;5095009;28;20028;-79
2023/04/01 10:45:47;;;;;;;1.55;0.10;;;;;;;;;;5094095;28;20036;-77
2023/04/01 10:48:18;;;;;;;0.40;0.20;;;;;;;;;;5093594;28;20105;-72
2023/04/01 10:51:03;;;;;;;0.05;0.00;;;;;;;;;;5096016;28;20028;-79
2023/04/01 10:53:40;;;;;;;0.13;0.13;;;;;;;;;;5109595;28;20484;-80
2023/04/01 10:56:10;;;;;;;0.57;0.13;;;;;;;;;;5102817;28;20055;-79
2023/04/01 10:58:37;;;;;;;0.43;0.23;;;;;;;;;;5094216;28;20051;-78
2023/04/01 11:01:23;;;;;;;0.50;0.10;;;;;;;;;;5094080;28;20039;-78
2023/04/01 11:04:10;;;;;;;0.30;0.17;;;;;;;;;;5093861;28;20078;-79
2023/04/01 11:06:40;;;;;;;0.15;0.10;;;;;;;;;;5094751;28;20020;-79
2023/04/01 11:09:20;;;;;;;0.17;0.17;;;;;;;;;;5096177;28;20484;-79
2023/04/01 11:11:48;;;;;;;1.90;0.20;;;;;;;;;;5109555;28;20046;-79
2023/04/01 11:14:27;;;;;;;0.55;0.20;;;;;;;;;;5096992;28;20030;-72
2023/04/01 11:17:09;;;;;;;0.10;0.10;;;;;;;;;;5099186;28;20028;-83
2023/04/01 11:19:38;;;;;;;0.10;0.10;;;;;;;;;;5096252;28;20032;-76
2023/04/01 11:22:09;;;;;;;0.57;0.10;;;;;;;;;;5100320;28;20357;-85
2023/04/01 11:24:42;;;;;;;0.10;0.10;;;;;;;;;;5100422;28;20303;-77
2023/04/01 11:27:08;;;;;;;0.50;0.13;;;;;;;;;;5098318;28;20030;-81
2023/04/01 11:29:52;;;;;;;0.35;0.20;;;;;;;;;;5093808;28;20032;-81
2023/04/01 11:32:37;;;;;;;0.57;0.20;;;;;;;;;;5092357;28;20377;-83
2023/04/01 11:35:26;;;;;;;1.75;0.20;;;;;;;;;;5093203;28;20034;-76
2023/04/01 11:37:52;;;;;;;0.30;0.20;;;;;;;;;;5083959;28;20032;-82
2023/04/01 11:40:28;;;;;;;0.60;0.20;;;;;;;;;;5092900;28;20031;-83
2023/04/01 11:43:01;;;;;;;2.60;0.20;;;;;;;;;;5095832;28;20483;-85
2023/04/01 11:45:35;;;;;;;0.80;0.30;;;14.00;99.90;;;;;;5096078;28;20062;-80
2023/04/01 11:48:17;;;;;;;0.45;0.20;;;14.00;99.90;;;;;;5092635;28;20052;-81
2023/04/01 11:50:57;;;;;;;1.17;0.25;;;13.90;99.90;;;;;;5093446;28;20119;-80
2023/04/01 11:53:27;;;;;;;0.45;0.20;;;13.90;99.90;;;;;;5093323;28;20123;-82
2023/04/01 11:56:13;;;;;;;0.47;0.15;;;13.80;99.90;;;;;;5094083;28;20032;-82
2023/04/01 11:59:11;;;;;;;0.13;0.13;;;13.70;99.90;;;;;;5094978;28;20483;-80
2023/04/01 12:01:52;;;;;;;0.22;0.13;;;13.40;99.90;;;;;;5096025;28;20028;-77
2023/04/01 12:05:08;;;;;;;0.47;0.17;;;13.30;99.90;;;;;;5093153;28;20457;-78
2023/04/01 12:07:43;;;;;;;1.00;0.35;;;12.90;99.90;;;;;;5073390;28;20464;-75
2023/04/01 12:10:19;;;;;;;0.20;0.20;;;12.70;99.90;;;;;;5096241;28;20346;-76
2023/04/01 12:13:03;;;;;;;0.13;0.10;;;12.50;99.90;;;;;;5096835;28;20484;-76
2023/04/01 12:15:58;;;;;;;0.17;0.10;;;12.30;99.90;;;;;;5105540;28;20028;-76
2023/04/01 12:18:48;;;;;;;0.15;0.10;;;12.20;99.90;;;;;;5095051;28;20028;-75
2023/04/01 12:21:36;;;;;;;0.15;0.13;;;12.10;99.90;;;;;;5092356;28;20446;-75
2023/04/01 12:24:40;;;;;;;0.75;0.30;;;11.90;99.90;;;;;;5092701;28;20036;-74
2023/04/01 12:27:11;;;;;;;1.42;0.30;;;11.90;99.90;;;;;;5091553;28;20470;-74
2023/04/01 12:29:59;;;;;;;0.77;0.20;;;11.80;99.90;;;;;;5092170;28;20028;-73
2023/04/01 12:32:46;;;;;;;0.88;0.30;;;11.70;99.90;;;;;;5090999;28;20035;-73
2023/04/01 12:35:45;;;;;;;0.20;0.20;;;11.60;99.90;;;;;;5093710;28;20020;-73
2023/04/01 12:38:30;;;;;;;2.30;0.30;;;11.60;99.90;;;;;;5112316;28;20023;-72
2023/04/01 12:41:18;;;;;;;0.63;0.10;;;11.60;99.90;;;;;;5108865;28;20036;-76
2023/04/01 12:44:06;;;;;;;0.73;0.20;;;11.70;99.90;;;;;;5110081;27;20023;-80
2023/04/01 12:47:10;;;;;;;0.45;0.13;;;12.00;99.90;;;;;;5065059;27;20618;-76
2023/04/01 12:49:47;;;;;;;0.15;0.10;;;12.40;99.90;;;;;;5080502;28;20118;-76
2023/04/01 12:52:41;;;;;;;0.35;0.30;;;12.80;99.90;;;;;;5092160;28;20492;-73
2023/04/01 12:55:31;;;;;;;0.20;0.20;;;13.10;99.90;;;;;;5107610;28;20050;-77
2023/04/01 12:58:17;;;;;;;0.20;0.10;;;13.30;99.90;;;;;;5092175;28;20453;-74
2023/04/01 13:00:52;;;;;;;0.10;0.10;;;13.20;99.90;;;;;;5091504;28;20058;-74
2023/04/01 13:03:43;;;;;;;0.88;0.20;;;13.30;99.90;;;;;;5097252;28;20069;-73
2023/04/01 13:06:30;;;;;;;0.10;0.10;;;13.30;99.90;;;;;;5100449;28;20028;-76
2023/04/01 13:09:26;;;;;;;0.10;0.10;;;13.50;99.90;;;;;;5097251;28;20034;-75
2023/04/01 13:12:36;;;;;;;0.30;0.30;;;13.50;99.90;;;;;;5098244;28;20043;-75
2023/04/01 13:15:26;;;;;;;0.20;0.20;;;13.60;99.90;;;;;;5091790;28;20024;-73
2023/04/01 13:18:13;;;;;;;0.13;0.13;;;13.60;99.90;;;;;;5091093;28;20457;-73
2023/04/01 13:21:00;;;;;;;0.20;0.10;;;13.50;99.90;;;;;;5097158;28;20031;-75
2023/04/01 13:23:32;;;;;;;0.10;0.10;;;13.30;99.90;;;;;;5111021;28;20024;-74
2023/04/01 13:26:04;;;;;;;1.92;0.17;;;13.10;99.90;;;;;;5100525;28;20115;-72
2023/04/01 13:28:38;;;;;;;0.10;0.10;;;13.00;99.90;;;;;;5109006;28;20035;-75
2023/04/01 13:31:33;;;;;;;2.00;0.20;;;12.90;99.90;;;;;;5100411;28;20050;-74
2023/04/01 13:34:25;;;;;;;0.03;0.03;;;12.80;99.90;;;;;;5091097;28;20055;-75
2023/04/01 13:37:20;;;;;;;0.57;0.28;;;12.90;99.90;;;;;;5089553;28;20028;-75
2023/04/01 13:40:23;;;;;;;0.20;0.20;;;13.00;99.90;;;;;;5090455;28;20765;-73
2023/04/01 13:43:07;;;;;;;0.20;0.20;;;13.10;99.90;;;;;;5092836;28;20162;-79
2023/04/01 13:46:05;;;;;;;0.10;0.10;;;13.10;99.90;;;;;;5103245;28;20148;-74
2023/04/01 13:49:08;;;;;;;0.20;0.20;;;13.20;99.90;;;;;;5089114;28;20055;-79
2023/04/01 13:52:15;;;;;;;0.20;0.20;;;13.20;99.90;;;;;;5089643;28;20097;-82
2023/04/01 13:54:55;;;;;;;0.82;0.40;;;13.10;99.90;;;;;;5059503;28;20040;-82
2023/04/01 13:57:43;;;;;;;1.75;0.40;;;13.00;99.90;;;;;;5090041;28;20107;-82
2023/04/01 14:00:33;;;;;;;0.30;0.20;;;13.00;99.90;;;;;;5093761;28;20019;-82
2023/04/01 14:03:17;;;;;;;;;;;13.00;99.90;;;;;;5091343;28;20028;-81
2023/04/01 14:05:49;;;;;;;0.10;0.10;;;12.90;99.90;;;;;;5091030;28;19934;-76
2023/04/01 14:08:20;;;;;;;0.30;0.20;;;12.90;99.90;;;;;;5090037;28;20373;-74
2023/04/01 14:11:24;;;;;;;0.52;0.10;;;13.00;99.90;;;;;;5097342;28;20455;-77
2023/04/01 14:14:15;;;;;;;0.10;0.10;;;13.10;99.90;;;;;;5106310;28;20035;-84
2023/04/01 14:16:55;;;;;;;0.30;0.10;;;13.00;99.90;;;;;;5100870;28;20080;-78
2023/04/01 14:19:38;;;;;;;0.20;0.10;;;12.90;99.90;;;;;;5090103;28;20028;-76
2023/04/01 14:22:31;;;;;;;0.20;0.20;;;12.80;99.90;;;;;;5090863;28;20047;-82
2023/04/01 14:25:22;;;;;;;0.13;0.13;;;12.80;99.90;;;;;;5089854;28;20111;-76
2023/04/01 14:28:00;;;;;;;0.10;0.10;;;12.60;99.90;;;;;;5096854;28;20020;-79
2023/04/01 14:30:41;;;;;;;0.10;0.10;;;12.50;99.90;;;;;;5099291;28;20483;-80
2023/04/01 14:33:28;;;;;;;0.73;0.13;;;12.30;99.90;;;;;;5090744;28;20020;-75
2023/04/01 14:36:18;;;;;;;0.25;0.20;;;12.30;99.90;;;;;;5098510;28;20040;-76
2023/04/01 14:39:21;;;;;;;0.00;0.00;;;12.10;99.90;;;;;;5100284;28;20051;-76
2023/04/01 14:42:27;;;;;;;0.60;0.13;;;12.00;99.90;;;;;;5089923;28;20493;-80
2023/04/01 14:45:19;;;;;;;0.20;0.20;;;11.90;99.90;;;;;;5100431;28;20050;-75
2023/04/01 14:48:05;;;;;;;1.63;0.20;;;11.70;99.90;;;;;;5081496;28;20048;-81
2023/04/01 14:50:42;;;;;;;0.10;0.10;;;11.60;99.90;;;;;;5069355;28;20028;-81
2023/04/01 14:53:34;;;;;;;0.43;0.30;;;11.50;99.90;;;;;;5070537;28;20036;-83
2023/04/01 14:56:02;;;;;;;0.30;0.20;;;11.30;99.90;;;;;;5070142;28;20021;-77
2023/04/01 14:58:50;;;;;;;0.30;0.30;;;11.40;99.90;;;;;;5069406;28;20031;-74